createdAt,value
2023-02-11T00:01:30.727Z,51.60
2023-02-11T00:03:59.021Z,50.20
2023-02-11T00:06:28.182Z,44.10
2023-02-11T00:08:56.910Z,45.20
2023-02-11T00:11:31.620Z,46.50
2023-02-11T00:14:01.324Z,48.70
2023-02-11T00:16:29.741Z,49.40
2023-02-11T00:19:01.700Z,54.40
2023-02-11T00:21:29.874Z,46.90
2023-02-11T00:23:59.917Z,59.20
2023-02-11T00:26:32.696Z,50.50
2023-02-11T00:29:01.524Z,53.80
2023-02-11T00:31:29.818Z,64.00
2023-02-11T00:33:58.437Z,72.20
2023-02-11T00:36:28.002Z,69.30
2023-02-11T00:38:57.586Z,59.70
2023-02-11T00:41:26.126Z,62.10
2023-02-11T00:43:54.741Z,54.30
2023-02-11T00:46:22.928Z,50.20
2023-02-11T00:48:53.388Z,48.60
2023-02-11T00:51:24.478Z,43.50
2023-02-11T00:53:52.884Z,50.80
2023-02-11T00:56:21.107Z,45.70
2023-02-11T00:58:49.005Z,47.80
2023-02-11T01:01:18.512Z,47.50
2023-02-11T01:03:46.740Z,46.40
2023-02-11T01:06:15.052Z,47.30
2023-02-11T01:08:43.231Z,51.70
2023-02-11T01:11:19.519Z,53.50
2023-02-11T01:13:48.450Z,46.50
2023-02-11T01:16:17.083Z,51.00
2023-02-11T01:18:47.574Z,52.30
2023-02-11T01:21:18.938Z,53.90
2023-02-11T01:23:46.841Z,49.50
2023-02-11T01:26:14.910Z,53.50
2023-02-11T01:28:43.004Z,49.60
2023-02-11T01:31:11.026Z,50.00
2023-02-11T01:33:39.124Z,44.90
2023-02-11T01:36:08.043Z,48.30
2023-02-11T01:38:36.297Z,44.50
2023-02-11T01:41:06.574Z,52.10
2023-02-11T01:43:36.532Z,44.80
2023-02-11T01:46:23.522Z,47.90
2023-02-11T01:49:17.617Z,41.80
2023-02-11T01:51:53.729Z,49.20
2023-02-11T01:54:41.894Z,48.60
2023-02-11T01:57:22.355Z,43.60
2023-02-11T02:00:21.573Z,45.30
2023-02-11T02:02:53.227Z,48.40
2023-02-11T02:05:35.893Z,48.30
2023-02-11T02:08:10.435Z,49.00
2023-02-11T02:10:40.170Z,50.80
2023-02-11T02:13:10.311Z,48.90
2023-02-11T02:15:40.562Z,55.10
2023-02-11T02:18:48.995Z,54.30
2023-02-11T02:21:51.475Z,51.10
2023-02-11T02:24:36.197Z,51.10
2023-02-11T02:27:29.099Z,47.10
2023-02-11T02:30:26.473Z,46.10
2023-02-11T02:33:05.830Z,57.00
2023-02-11T02:35:52.560Z,61.00
2023-02-11T02:38:27.793Z,57.80
2023-02-11T02:41:09.278Z,51.10
2023-02-11T02:43:42.544Z,43.10
2023-02-11T02:46:16.570Z,48.00
2023-02-11T02:48:44.898Z,45.90
2023-02-11T02:51:34.384Z,43.20
2023-02-11T02:54:08.563Z,49.40
2023-02-11T02:56:59.016Z,57.10
2023-02-11T02:59:42.094Z,68.60
2023-02-11T03:02:47.964Z,61.10
2023-02-11T03:05:18.984Z,61.70
2023-02-11T03:07:56.853Z,56.90
2023-02-11T03:12:55.715Z,50.60
2023-02-11T03:15:25.295Z,61.30
2023-02-11T03:17:54.929Z,66.30
2023-02-11T03:20:23.013Z,56.20
2023-02-11T03:22:56.037Z,54.20
2023-02-11T03:25:30.109Z,48.20
2023-02-11T03:28:07.364Z,59.90
2023-02-11T03:30:43.540Z,47.30
2023-02-11T03:33:16.111Z,53.10
2023-02-11T03:35:47.881Z,52.70
2023-02-11T03:38:19.774Z,48.00
2023-02-11T03:40:47.712Z,53.80
2023-02-11T03:43:22.816Z,48.50
2023-02-11T03:45:51.497Z,49.10
2023-02-11T03:48:20.494Z,50.80
2023-02-11T03:50:48.853Z,53.80
2023-02-11T03:53:16.695Z,51.90
2023-02-11T03:55:44.665Z,55.70
2023-02-11T03:58:13.405Z,58.20
2023-02-11T04:00:42.236Z,55.90
2023-02-11T04:03:11.190Z,58.30
2023-02-11T04:05:39.343Z,51.80
2023-02-11T04:08:07.600Z,52.00
2023-02-11T04:10:35.641Z,53.50
2023-02-11T04:13:03.993Z,52.10
2023-02-11T04:15:32.652Z,56.10
2023-02-11T04:18:00.701Z,52.60
2023-02-11T04:20:28.693Z,54.10
2023-02-11T04:22:56.739Z,48.90
2023-02-11T04:25:26.291Z,51.50
2023-02-11T04:27:54.705Z,54.40
2023-02-11T04:30:22.986Z,56.60
2023-02-11T04:32:50.954Z,58.90
2023-02-11T04:35:19.231Z,62.10
2023-02-11T04:37:47.158Z,58.60
2023-02-11T04:40:15.147Z,54.00
2023-02-11T04:42:44.409Z,57.30
2023-02-11T04:45:12.724Z,54.50
2023-02-11T04:47:40.712Z,56.90
2023-02-11T04:50:09.005Z,57.50
2023-02-11T04:52:37.393Z,53.80
2023-02-11T04:55:06.448Z,50.90
2023-02-11T04:57:34.842Z,52.90
2023-02-11T05:00:03.953Z,51.60
2023-02-11T05:02:32.568Z,57.10
2023-02-11T05:05:00.619Z,60.30
2023-02-11T05:07:28.703Z,63.70
2023-02-11T05:09:56.696Z,56.90
2023-02-11T05:12:24.904Z,57.20
2023-02-11T05:14:53.004Z,61.60
2023-02-11T05:17:21.226Z,67.60
2023-02-11T05:19:49.308Z,57.30
2023-02-11T05:22:19.821Z,57.60
2023-02-11T05:24:47.825Z,52.80
2023-02-11T05:27:15.835Z,54.00
2023-02-11T05:29:43.849Z,56.50
2023-02-11T05:32:12.406Z,55.90
2023-02-11T05:34:40.299Z,50.80
2023-02-11T05:37:09.138Z,56.90
2023-02-11T05:39:38.129Z,58.60
2023-02-11T05:42:06.314Z,51.60
2023-02-11T05:44:34.484Z,54.00
2023-02-11T05:47:02.468Z,50.90
2023-02-11T05:49:30.684Z,55.40
2023-02-11T05:51:58.919Z,57.60
2023-02-11T05:54:26.825Z,54.10
2023-02-11T05:56:54.689Z,55.40
2023-02-11T05:59:22.676Z,54.30
2023-02-11T06:01:51.303Z,52.50
2023-02-11T06:04:19.388Z,53.20
2023-02-11T06:06:47.271Z,52.80
2023-02-11T06:09:15.487Z,66.40
2023-02-11T06:11:43.445Z,66.10
2023-02-11T06:14:14.406Z,63.00
2023-02-11T06:16:42.734Z,57.90
2023-02-11T06:19:11.589Z,53.50
2023-02-11T06:21:44.093Z,57.00
2023-02-11T06:24:12.727Z,58.80
2023-02-11T06:26:40.950Z,55.50
2023-02-11T06:29:08.876Z,53.00
2023-02-11T06:31:37.741Z,48.50
2023-02-11T06:34:06.208Z,51.10
2023-02-11T06:36:34.537Z,49.70
2023-02-11T06:39:02.799Z,52.20
2023-02-11T06:41:30.986Z,47.00
2023-02-11T06:43:59.186Z,50.40
2023-02-11T06:46:27.150Z,49.60
2023-02-11T06:48:55.116Z,51.20
2023-02-11T06:51:23.141Z,45.00
2023-02-11T06:53:52.356Z,53.60
2023-02-11T06:56:21.884Z,49.20
2023-02-11T06:58:53.511Z,47.40
2023-02-11T07:01:21.573Z,45.40
2023-02-11T07:03:50.405Z,51.70
2023-02-11T07:06:20.734Z,49.50
2023-02-11T07:08:50.035Z,43.40
2023-02-11T07:11:26.653Z,47.00
2023-02-11T07:13:56.621Z,54.50
2023-02-11T07:16:24.616Z,49.90
2023-02-11T07:18:54.540Z,46.70
2023-02-11T07:21:24.756Z,46.20
2023-02-11T07:23:52.931Z,56.20
2023-02-11T07:26:23.496Z,57.60
2023-02-11T07:28:53.352Z,54.10
2023-02-11T07:31:26.161Z,55.00
2023-02-11T07:33:55.607Z,53.30
2023-02-11T07:36:23.632Z,58.00
2023-02-11T07:38:51.529Z,63.50
2023-02-11T07:41:21.357Z,51.90
2023-02-11T07:43:49.498Z,53.00
2023-02-11T07:46:27.749Z,52.00
2023-02-11T07:48:55.792Z,58.80
2023-02-11T07:51:28.719Z,56.90
2023-02-11T07:53:58.057Z,60.50
2023-02-11T07:56:26.236Z,63.20
2023-02-11T07:58:54.897Z,62.20
2023-02-11T08:01:25.497Z,59.40
2023-02-11T08:03:57.735Z,61.80
2023-02-11T08:06:27.147Z,58.20
2023-02-11T08:08:55.234Z,57.30
2023-02-11T08:11:27.716Z,58.30
2023-02-11T08:13:56.000Z,58.90
2023-02-11T08:16:26.369Z,59.70
2023-02-11T08:18:57.390Z,56.60
2023-02-11T08:21:25.874Z,60.20
2023-02-11T08:23:54.676Z,64.60
2023-02-11T08:26:25.156Z,54.60
2023-02-11T08:28:53.931Z,56.70
2023-02-11T08:31:24.692Z,53.30
2023-02-11T08:33:54.206Z,56.90
2023-02-11T08:36:23.657Z,59.00
2023-02-11T08:38:57.134Z,56.10
2023-02-11T08:41:34.382Z,57.20
2023-02-11T08:44:02.739Z,58.40
2023-02-11T08:46:30.788Z,51.20
2023-02-11T08:48:58.908Z,52.50
2023-02-11T08:51:27.975Z,57.20
2023-02-11T08:53:57.329Z,50.20
2023-02-11T08:56:25.927Z,58.30
2023-02-11T08:58:54.166Z,53.30
2023-02-11T09:01:24.560Z,57.20
2023-02-11T09:03:52.862Z,55.30
2023-02-11T09:06:28.517Z,52.10
2023-02-11T09:09:01.164Z,51.00
2023-02-11T09:11:34.012Z,55.60
2023-02-11T09:14:04.043Z,54.60
2023-02-11T09:16:34.481Z,52.40
2023-02-11T09:19:05.272Z,49.30
2023-02-11T09:21:34.271Z,61.90
2023-02-11T09:24:02.249Z,56.00
2023-02-11T09:26:31.953Z,49.20
2023-02-11T09:28:59.891Z,53.30
2023-02-11T09:31:29.596Z,55.80
2023-02-11T09:34:02.164Z,52.40
2023-02-11T09:36:32.257Z,55.70
2023-02-11T09:39:01.540Z,52.80
2023-02-11T09:41:35.683Z,57.90
2023-02-11T09:44:06.170Z,57.10
2023-02-11T09:46:37.056Z,58.40
2023-02-11T09:49:05.019Z,54.10
2023-02-11T09:51:48.312Z,53.40
2023-02-11T09:54:34.385Z,47.00
2023-02-11T09:57:02.245Z,52.20
2023-02-11T09:59:31.649Z,60.00
2023-02-11T10:02:11.988Z,52.80
2023-02-11T10:05:05.351Z,61.20
2023-02-11T10:07:51.677Z,54.20
2023-02-11T10:10:44.660Z,55.80
2023-02-11T10:13:30.502Z,56.00
2023-02-11T10:16:25.001Z,48.30
2023-02-11T10:19:14.205Z,53.60
2023-02-11T10:21:58.846Z,50.50
2023-02-11T10:24:29.159Z,52.60
2023-02-11T10:26:57.303Z,57.10
2023-02-11T10:29:40.847Z,50.20
2023-02-11T10:32:49.358Z,49.90
2023-02-11T10:35:21.225Z,53.80
2023-02-11T10:37:49.630Z,53.30
2023-02-11T10:40:19.562Z,58.00
2023-02-11T10:42:50.088Z,55.50
2023-02-11T10:45:44.614Z,58.40
2023-02-11T10:48:45.271Z,53.10
2023-02-11T10:51:22.918Z,52.00
2023-02-11T10:54:19.403Z,54.80
2023-02-11T10:56:50.264Z,52.60
2023-02-11T10:59:31.025Z,53.70
2023-02-11T11:02:16.895Z,51.50
2023-02-11T11:04:45.443Z,56.40
2023-02-11T11:07:25.392Z,52.00
2023-02-11T11:09:55.107Z,53.10
2023-02-11T11:12:40.294Z,52.10
2023-02-11T11:15:19.808Z,52.90
2023-02-11T11:17:50.908Z,48.40
2023-02-11T11:20:20.301Z,49.30
2023-02-11T11:22:49.782Z,52.20
2023-02-11T11:25:23.352Z,55.10
2023-02-11T11:27:58.112Z,52.80
2023-02-11T11:30:41.402Z,54.70
2023-02-11T11:33:23.984Z,53.10
2023-02-11T11:36:04.889Z,57.00
2023-02-11T11:38:33.481Z,56.00
2023-02-11T11:41:17.046Z,60.60
2023-02-11T11:44:23.517Z,61.90
2023-02-11T11:47:04.893Z,61.10
2023-02-11T11:49:35.857Z,55.60
2023-02-11T11:52:33.150Z,59.40
2023-02-11T11:55:17.400Z,65.00
2023-02-11T11:57:45.404Z,68.70
2023-02-11T12:00:49.668Z,75.80
2023-02-11T12:03:18.761Z,62.70
2023-02-11T12:06:02.126Z,69.60
2023-02-11T12:09:07.945Z,79.90
2023-02-11T12:11:54.513Z,61.30
2023-02-11T12:14:43.485Z,60.50
2023-02-11T12:17:31.802Z,61.60
2023-02-11T12:20:02.669Z,56.10
2023-02-11T12:22:43.451Z,57.60
2023-02-11T12:25:26.689Z,58.10
2023-02-11T12:28:04.321Z,55.40
2023-02-11T12:30:57.215Z,64.20
2023-02-11T12:33:41.039Z,58.20
2023-02-11T12:36:33.798Z,59.60
2023-02-11T12:39:39.703Z,63.30
2023-02-11T12:43:01.458Z,62.40
2023-02-11T12:45:49.762Z,57.20
2023-02-11T12:48:26.994Z,55.60
2023-02-11T12:51:04.857Z,54.50
2023-02-11T12:53:45.254Z,55.90
2023-02-11T12:56:54.281Z,52.50
2023-02-11T12:59:31.982Z,47.00
2023-02-11T13:02:00.095Z,53.70
2023-02-11T13:04:39.035Z,47.40
2023-02-11T13:07:13.934Z,45.30
2023-02-11T13:09:45.249Z,45.40
2023-02-11T13:12:32.717Z,46.60
2023-02-11T13:15:03.852Z,48.40
2023-02-11T13:17:36.785Z,42.40
2023-02-11T13:20:34.887Z,43.80
2023-02-11T13:23:12.717Z,37.60
2023-02-11T13:25:43.092Z,35.70
2023-02-11T13:28:23.822Z,32.40
2023-02-11T13:31:02.065Z,38.10
2023-02-11T13:33:37.849Z,29.30
2023-02-11T13:36:05.763Z,26.00
2023-02-11T13:38:33.963Z,29.70
2023-02-11T13:41:17.266Z,31.90
2023-02-11T13:43:45.280Z,28.80
2023-02-11T13:46:13.789Z,25.20
2023-02-11T13:48:46.793Z,20.10
2023-02-11T13:51:17.909Z,25.10
2023-02-11T13:53:54.906Z,25.40
2023-02-11T13:56:30.870Z,19.70
2023-02-11T13:59:02.020Z,23.80
2023-02-11T14:02:29.204Z,22.50
2023-02-11T14:05:41.991Z,27.60
2023-02-11T14:08:30.287Z,28.70
2023-02-11T14:11:08.678Z,25.50
2023-02-11T14:14:04.469Z,18.30
2023-02-11T14:16:38.262Z,18.80
2023-02-11T14:19:08.663Z,20.50
2023-02-11T14:21:38.314Z,21.00
2023-02-11T14:24:13.061Z,29.80
2023-02-11T14:26:52.413Z,33.60
2023-02-11T14:29:34.201Z,26.80
2023-02-11T14:32:19.769Z,26.40
2023-02-11T14:34:53.616Z,30.80
2023-02-11T14:37:33.238Z,24.80
2023-02-11T14:40:47.930Z,23.60
2023-02-11T14:43:18.633Z,25.70
2023-02-11T14:45:50.490Z,25.10
2023-02-11T14:48:19.656Z,27.60
2023-02-11T14:50:52.801Z,28.50
2023-02-11T14:53:22.668Z,25.90
2023-02-11T14:55:54.947Z,26.30
2023-02-11T14:58:30.283Z,25.80
2023-02-11T15:01:09.331Z,27.10
2023-02-11T15:03:41.745Z,30.60
2023-02-11T15:06:23.326Z,34.80
2023-02-11T15:08:52.158Z,29.90
2023-02-11T15:11:24.768Z,26.30
2023-02-11T15:13:55.324Z,33.00
2023-02-11T15:16:24.225Z,30.20
2023-02-11T15:19:02.734Z,29.40
2023-02-11T15:21:32.535Z,32.60
2023-02-11T15:24:21.011Z,30.00
2023-02-11T15:27:21.121Z,33.90
2023-02-11T15:29:50.623Z,33.60
2023-02-11T15:32:21.655Z,34.00
2023-02-11T15:34:51.343Z,40.50
2023-02-11T15:37:25.197Z,34.50
2023-02-11T15:39:53.695Z,33.40
2023-02-11T15:42:22.190Z,34.60
2023-02-11T15:45:12.075Z,41.00
2023-02-11T15:47:42.043Z,76.00
2023-02-11T15:50:20.093Z,43.50
2023-02-11T15:52:48.120Z,37.20
2023-02-11T15:55:16.775Z,37.20
2023-02-11T15:57:58.797Z,40.50
2023-02-11T16:00:33.862Z,40.00
2023-02-11T16:03:02.100Z,36.60
2023-02-11T16:05:36.187Z,39.50
2023-02-11T16:08:21.405Z,38.10
2023-02-11T16:11:03.401Z,39.20
2023-02-11T16:13:34.649Z,41.30
2023-02-11T16:16:04.698Z,46.10
2023-02-11T16:18:39.675Z,38.50
2023-02-11T16:21:15.927Z,42.00
2023-02-11T16:23:50.542Z,39.50
2023-02-11T16:26:33.041Z,42.30
2023-02-11T16:29:10.876Z,42.10
2023-02-11T16:31:44.622Z,39.20
2023-02-11T16:34:24.580Z,36.60
2023-02-11T16:36:53.599Z,36.20
2023-02-11T16:39:22.489Z,39.90
2023-02-11T16:41:52.802Z,41.10
2023-02-11T16:44:21.486Z,38.50
2023-02-11T16:46:52.218Z,41.10
2023-02-11T16:49:25.667Z,34.50
2023-02-11T16:51:56.882Z,37.80
2023-02-11T16:54:28.645Z,37.80
2023-02-11T16:56:57.019Z,37.60
2023-02-11T16:59:25.219Z,35.70
2023-02-11T17:01:53.710Z,36.50
2023-02-11T17:04:29.535Z,38.90
2023-02-11T17:06:58.698Z,35.90
2023-02-11T17:09:30.236Z,35.00
2023-02-11T17:12:01.470Z,36.30
2023-02-11T17:14:29.611Z,37.20
2023-02-11T17:16:57.878Z,34.80
2023-02-11T17:19:25.746Z,33.40
2023-02-11T17:21:53.949Z,34.80
2023-02-11T17:24:22.125Z,33.80
2023-02-11T17:26:50.443Z,34.40
2023-02-11T17:29:23.233Z,34.10
2023-02-11T17:31:52.233Z,35.10
2023-02-11T17:34:21.132Z,35.50
2023-02-11T17:36:49.315Z,33.20
2023-02-11T17:39:17.562Z,33.70
2023-02-11T17:41:45.719Z,30.80
2023-02-11T17:44:15.549Z,34.00
2023-02-11T17:46:43.775Z,32.50
2023-02-11T17:49:14.344Z,33.60
2023-02-11T17:51:43.619Z,33.80
2023-02-11T17:54:13.381Z,30.90
2023-02-11T17:56:41.535Z,34.40
2023-02-11T17:59:09.722Z,33.50
2023-02-11T18:01:38.924Z,31.00
2023-02-11T18:04:13.272Z,33.30
2023-02-11T18:06:42.289Z,34.80
2023-02-11T18:09:10.572Z,31.50
2023-02-11T18:11:41.169Z,31.10
2023-02-11T18:14:10.227Z,35.50
2023-02-11T18:16:43.179Z,33.00
2023-02-11T18:19:12.253Z,32.10
2023-02-11T18:21:41.674Z,33.10
2023-02-11T18:24:09.631Z,34.30
2023-02-11T18:26:37.617Z,34.20
2023-02-11T18:29:07.036Z,32.60
2023-02-11T18:31:35.614Z,37.60
2023-02-11T18:34:05.907Z,37.10
2023-02-11T18:36:34.066Z,40.20
2023-02-11T18:39:02.590Z,37.10
2023-02-11T18:41:30.748Z,35.30
2023-02-11T18:44:02.814Z,36.40
2023-02-11T18:46:31.506Z,37.90
2023-02-11T18:48:59.637Z,37.70
2023-02-11T18:51:27.642Z,40.60
2023-02-11T18:53:56.167Z,37.10
2023-02-11T18:56:25.109Z,38.20
2023-02-11T18:58:55.093Z,41.20
2023-02-11T19:01:26.010Z,38.70
2023-02-11T19:03:55.002Z,40.30
2023-02-11T19:06:27.154Z,37.20
2023-02-11T19:08:59.184Z,37.50
2023-02-11T19:11:47.016Z,37.20
2023-02-11T19:14:37.389Z,40.30
2023-02-11T19:17:07.037Z,42.20
2023-02-11T19:19:35.623Z,37.40
2023-02-11T19:22:08.502Z,41.70
2023-02-11T19:24:39.479Z,41.00
2023-02-11T19:27:11.792Z,42.40
2023-02-11T19:29:40.152Z,41.10
2023-02-11T19:32:08.609Z,46.40
2023-02-11T19:34:41.309Z,43.00
2023-02-11T19:37:12.584Z,45.90
2023-02-11T19:39:41.991Z,44.60
2023-02-11T19:42:13.430Z,46.70
2023-02-11T19:44:41.935Z,51.30
2023-02-11T19:47:10.596Z,80.70
2023-02-11T19:49:38.538Z,83.40
2023-02-11T19:52:06.449Z,73.10
2023-02-11T19:54:34.940Z,48.90
2023-02-11T19:57:07.330Z,46.10
2023-02-11T19:59:35.826Z,46.10
2023-02-11T20:02:03.936Z,43.00
2023-02-11T20:04:32.321Z,43.30
2023-02-11T20:07:00.375Z,43.80
2023-02-11T20:09:31.142Z,43.20
2023-02-11T20:11:59.664Z,43.30
2023-02-11T20:14:28.416Z,43.60
2023-02-11T20:16:56.482Z,44.70
2023-02-11T20:19:25.896Z,44.40
2023-02-11T20:21:55.612Z,43.20
2023-02-11T20:24:24.221Z,46.90
2023-02-11T20:26:55.772Z,41.50
2023-02-11T20:29:25.106Z,47.10
2023-02-11T20:31:54.038Z,49.00
2023-02-11T20:34:23.232Z,47.00
2023-02-11T20:36:52.223Z,47.20
2023-02-11T20:39:22.316Z,43.50
2023-02-11T20:41:51.068Z,47.90
2023-02-11T20:44:21.398Z,45.70
2023-02-11T20:46:49.561Z,52.00
2023-02-11T20:49:19.762Z,45.70
2023-02-11T20:51:49.179Z,45.80
2023-02-11T20:54:18.490Z,46.00
2023-02-11T20:56:51.254Z,46.20
2023-02-11T20:59:21.119Z,43.30
2023-02-11T21:01:50.903Z,45.00
2023-02-11T21:04:20.697Z,46.30
2023-02-11T21:06:53.261Z,49.00
2023-02-11T21:09:23.637Z,50.80
2023-02-11T21:11:52.728Z,44.40
2023-02-11T21:14:22.352Z,44.60
2023-02-11T21:16:50.277Z,42.40
2023-02-11T21:19:18.855Z,40.30
2023-02-11T21:21:46.841Z,44.50
2023-02-11T21:24:14.918Z,43.30
2023-02-11T21:26:43.109Z,43.20
2023-02-11T21:29:11.837Z,43.80
2023-02-11T21:31:40.426Z,39.00
2023-02-11T21:34:09.938Z,43.50
2023-02-11T21:36:38.291Z,40.20
2023-02-11T21:39:06.919Z,41.70
2023-02-11T21:41:35.604Z,38.00
2023-02-11T21:44:03.497Z,38.00
2023-02-11T21:46:32.383Z,42.30
2023-02-11T21:49:00.447Z,45.30
2023-02-11T21:51:28.487Z,43.00
2023-02-11T21:53:58.277Z,40.60
2023-02-11T21:56:29.929Z,46.90
2023-02-11T21:58:58.764Z,45.20
2023-02-11T22:01:31.362Z,47.80
2023-02-11T22:03:59.349Z,47.50
2023-02-11T22:06:32.891Z,44.80
2023-02-11T22:09:08.462Z,45.90
2023-02-11T22:11:36.429Z,51.00
2023-02-11T22:14:04.856Z,41.40
2023-02-11T22:16:33.548Z,46.70
2023-02-11T22:19:02.596Z,47.90
2023-02-11T22:21:30.786Z,47.70
2023-02-11T22:23:58.850Z,45.30
2023-02-11T22:26:27.347Z,45.50
2023-02-11T22:28:56.404Z,47.80
2023-02-11T22:31:31.295Z,44.70
2023-02-11T22:34:00.033Z,48.40
2023-02-11T22:36:30.063Z,51.20
2023-02-11T22:39:06.201Z,47.50
2023-02-11T22:41:34.392Z,43.00
2023-02-11T22:44:03.111Z,43.10
2023-02-11T22:46:31.406Z,50.30
2023-02-11T22:48:59.592Z,47.90
2023-02-11T22:51:28.876Z,45.60
2023-02-11T22:54:01.442Z,43.70
2023-02-11T22:56:30.869Z,44.50
2023-02-11T22:59:00.007Z,41.90
2023-02-11T23:01:28.797Z,41.20
2023-02-11T23:03:57.038Z,39.00
2023-02-11T23:06:25.035Z,37.50
2023-02-11T23:08:53.118Z,41.50
2023-02-11T23:11:23.526Z,39.50
2023-02-11T23:13:52.983Z,39.20
2023-02-11T23:16:24.056Z,36.80
2023-02-11T23:18:52.420Z,39.40
2023-02-11T23:21:22.956Z,36.80
2023-02-11T23:23:58.145Z,41.10
2023-02-11T23:26:26.296Z,36.00
2023-02-11T23:28:54.424Z,33.70
2023-02-11T23:31:24.564Z,37.70
2023-02-11T23:33:52.556Z,34.70
2023-02-11T23:36:20.934Z,31.60
2023-02-11T23:38:51.771Z,34.50
2023-02-11T23:41:20.781Z,29.70
2023-02-11T23:43:53.369Z,28.20
2023-02-11T23:46:24.265Z,33.40
2023-02-11T23:48:53.140Z,31.40
2023-02-11T23:51:22.069Z,28.20
2023-02-11T23:53:50.471Z,30.50
2023-02-11T23:56:23.292Z,28.70
2023-02-11T23:58:53.322Z,24.20
